createdAt,value
2022-09-27T00:01:14.801Z,9.04
2022-09-27T00:03:43.624Z,9.04
2022-09-27T00:06:16.317Z,9.11
2022-09-27T00:08:45.632Z,8.66
2022-09-27T00:11:21.040Z,8.97
2022-09-27T00:13:49.484Z,9.00
2022-09-27T00:16:18.075Z,8.99
2022-09-27T00:18:46.765Z,8.93
2022-09-27T00:21:16.901Z,8.83
2022-09-27T00:23:45.453Z,8.85
2022-09-27T00:26:14.986Z,8.89
2022-09-27T00:28:43.992Z,8.58
2022-09-27T00:31:21.278Z,8.87
2022-09-27T00:33:50.703Z,8.73
2022-09-27T00:36:22.093Z,8.79
2022-09-27T00:38:50.768Z,8.65
2022-09-27T00:41:21.836Z,8.34
2022-09-27T00:43:51.737Z,8.36
2022-09-27T00:46:24.654Z,8.81
2022-09-27T00:49:03.046Z,8.78
2022-09-27T00:51:35.637Z,8.73
2022-09-27T00:54:04.968Z,8.70
2022-09-27T00:56:35.128Z,8.84
2022-09-27T00:59:08.629Z,8.76
2022-09-27T01:01:37.409Z,8.72
2022-09-27T01:04:09.697Z,8.37
2022-09-27T01:06:40.005Z,8.71
2022-09-27T01:09:10.415Z,8.47
2022-09-27T01:11:45.267Z,8.55
2022-09-27T01:14:30.624Z,8.74
2022-09-27T01:17:06.519Z,8.68
2022-09-27T01:20:02.903Z,8.68
2022-09-27T01:22:42.230Z,8.68
2022-09-27T01:25:28.215Z,8.66
2022-09-27T01:28:15.797Z,8.62
2022-09-27T01:30:51.938Z,8.62
2022-09-27T01:33:31.356Z,8.65
2022-09-27T01:36:09.210Z,8.66
2022-09-27T01:38:47.056Z,8.36
2022-09-27T01:41:27.777Z,8.66
2022-09-27T01:44:02.535Z,8.62
2022-09-27T01:46:39.695Z,8.64
2022-09-27T01:49:13.729Z,8.63
2022-09-27T01:51:47.151Z,8.63
2022-09-27T01:54:20.861Z,8.63
2022-09-27T01:56:50.399Z,8.50
2022-09-27T01:59:22.625Z,8.58
2022-09-27T02:01:54.978Z,8.60
2022-09-27T02:04:28.923Z,8.63
2022-09-27T02:07:10.444Z,8.72
2022-09-27T02:09:44.118Z,8.67
2022-09-27T02:12:15.377Z,8.57
2022-09-27T02:14:48.533Z,8.60
2022-09-27T02:17:27.480Z,8.65
2022-09-27T02:20:04.982Z,8.68
2022-09-27T02:22:37.807Z,8.67
2022-09-27T02:25:15.681Z,8.67
2022-09-27T02:27:57.088Z,8.63
2022-09-27T02:30:25.574Z,8.19
2022-09-27T02:32:56.069Z,8.47
2022-09-27T02:35:29.742Z,8.62
2022-09-27T02:37:58.944Z,8.56
2022-09-27T02:40:33.056Z,8.68
2022-09-27T02:43:04.528Z,8.58
2022-09-27T02:45:41.377Z,8.72
2022-09-27T02:48:21.013Z,8.70
2022-09-27T02:51:21.924Z,8.69
2022-09-27T02:54:04.511Z,8.51
2022-09-27T02:56:40.808Z,8.67
2022-09-27T02:59:15.718Z,8.70
2022-09-27T03:01:53.895Z,8.72
2022-09-27T03:04:30.712Z,8.75
2022-09-27T03:07:01.916Z,8.71
2022-09-27T03:09:41.607Z,8.55
2022-09-27T03:12:10.476Z,8.74
2022-09-27T03:14:39.077Z,8.71
2022-09-27T03:17:07.648Z,8.73
2022-09-27T03:19:37.991Z,8.73
2022-09-27T03:22:06.490Z,8.76
2022-09-27T03:24:35.046Z,8.84
2022-09-27T03:27:03.847Z,8.76
2022-09-27T03:29:32.606Z,8.83
2022-09-27T03:32:01.194Z,8.86
2022-09-27T03:34:29.676Z,8.77
2022-09-27T03:36:59.963Z,8.75
2022-09-27T03:39:28.744Z,8.72
2022-09-27T03:41:57.635Z,8.76
2022-09-27T03:44:26.183Z,8.41
2022-09-27T03:46:54.751Z,8.72
2022-09-27T03:49:23.235Z,8.74
2022-09-27T03:51:52.098Z,8.69
2022-09-27T03:54:21.940Z,8.69
2022-09-27T03:56:50.455Z,8.43
2022-09-27T03:59:18.967Z,8.07
2022-09-27T04:01:47.463Z,8.59
2022-09-27T04:04:16.576Z,8.55
2022-09-27T04:06:45.036Z,8.53
2022-09-27T04:09:13.699Z,8.55
2022-09-27T04:11:43.716Z,8.59
2022-09-27T04:14:13.233Z,8.56
2022-09-27T04:16:42.010Z,8.49
2022-09-27T04:19:11.083Z,8.60
2022-09-27T04:21:39.663Z,8.57
2022-09-27T04:24:08.579Z,8.59
2022-09-27T04:26:37.319Z,8.15
2022-09-27T04:29:08.508Z,8.29
2022-09-27T04:31:38.095Z,8.59
2022-09-27T04:34:06.984Z,8.22
2022-09-27T04:36:34.553Z,8.55
2022-09-27T04:39:04.800Z,8.59
2022-09-27T04:41:34.320Z,8.50
2022-09-27T04:44:03.321Z,8.59
2022-09-27T04:46:34.365Z,8.59
2022-09-27T04:49:03.117Z,8.56
2022-09-27T04:51:31.939Z,8.57
2022-09-27T04:54:00.460Z,8.56
2022-09-27T04:56:28.984Z,8.61
2022-09-27T04:58:57.383Z,8.59
2022-09-27T05:01:25.977Z,8.61
2022-09-27T05:03:56.165Z,8.64
2022-09-27T05:06:24.780Z,8.66
2022-09-27T05:08:53.484Z,8.43
2022-09-27T05:11:22.527Z,8.58
2022-09-27T05:13:51.388Z,8.52
2022-09-27T05:16:20.708Z,8.55
2022-09-27T05:18:49.256Z,8.57
2022-09-27T05:21:19.520Z,8.51
2022-09-27T05:23:48.183Z,8.48
2022-09-27T05:26:16.712Z,8.53
2022-09-27T05:28:47.576Z,8.35
2022-09-27T05:31:16.446Z,8.34
2022-09-27T05:33:45.011Z,8.31
2022-09-27T05:36:13.886Z,8.40
2022-09-27T05:38:44.147Z,8.40
2022-09-27T05:41:12.792Z,8.48
2022-09-27T05:43:41.752Z,8.42
2022-09-27T05:46:10.375Z,8.43
2022-09-27T05:48:38.863Z,8.51
2022-09-27T05:51:07.819Z,8.46
2022-09-27T05:53:36.738Z,8.54
2022-09-27T05:56:07.044Z,8.48
2022-09-27T05:58:35.472Z,8.47
2022-09-27T06:01:04.083Z,8.45
2022-09-27T06:03:32.523Z,8.38
2022-09-27T06:06:06.112Z,8.47
2022-09-27T06:08:35.740Z,8.45
2022-09-27T06:11:06.931Z,8.47
2022-09-27T06:13:36.447Z,8.51
2022-09-27T06:16:05.776Z,8.42
2022-09-27T06:18:34.464Z,8.49
2022-09-27T06:21:04.299Z,8.55
2022-09-27T06:23:34.116Z,8.47
2022-09-27T06:26:05.134Z,8.24
2022-09-27T06:28:38.335Z,8.49
2022-09-27T06:31:08.431Z,8.29
2022-09-27T06:33:37.603Z,8.24
2022-09-27T06:36:07.552Z,7.90
2022-09-27T06:38:36.627Z,8.11
2022-09-27T06:41:07.065Z,8.17
2022-09-27T06:43:37.236Z,8.16
2022-09-27T06:46:06.363Z,8.20
2022-09-27T06:48:37.716Z,8.26
2022-09-27T06:51:06.551Z,8.25
2022-09-27T06:53:35.344Z,8.38
2022-09-27T06:56:04.451Z,8.39
2022-09-27T06:58:50.260Z,8.27
2022-09-27T07:01:20.646Z,8.06
2022-09-27T07:03:52.095Z,8.03
2022-09-27T07:06:23.029Z,8.06
2022-09-27T07:08:54.502Z,7.92
2022-09-27T07:11:24.289Z,7.96
2022-09-27T07:13:53.092Z,7.98
2022-09-27T07:16:23.011Z,8.05
2022-09-27T07:18:52.052Z,8.12
2022-09-27T07:21:21.823Z,8.17
2022-09-27T07:23:50.310Z,8.14
2022-09-27T07:26:18.781Z,8.19
2022-09-27T07:28:47.752Z,8.29
2022-09-27T07:31:17.365Z,8.25
2022-09-27T07:33:47.460Z,8.29
2022-09-27T07:36:16.218Z,8.10
2022-09-27T07:38:44.848Z,8.29
2022-09-27T07:41:15.408Z,8.23
2022-09-27T07:43:45.352Z,7.98
2022-09-27T07:46:15.423Z,8.37
2022-09-27T07:48:44.037Z,8.43
2022-09-27T07:51:13.924Z,8.46
2022-09-27T07:53:42.452Z,8.43
2022-09-27T07:56:11.521Z,8.41
2022-09-27T07:58:40.517Z,8.48
2022-09-27T08:01:09.087Z,8.38
2022-09-27T08:03:38.129Z,8.49
2022-09-27T08:06:06.848Z,8.47
2022-09-27T08:08:37.187Z,8.55
2022-09-27T08:11:15.382Z,8.44
2022-09-27T08:13:44.256Z,8.44
2022-09-27T08:16:14.291Z,8.35
2022-09-27T08:18:43.336Z,8.35
2022-09-27T08:21:11.999Z,8.29
2022-09-27T08:23:42.977Z,8.25
2022-09-27T08:26:11.444Z,8.32
2022-09-27T08:28:40.368Z,8.30
2022-09-27T08:31:08.851Z,8.32
2022-09-27T08:33:41.426Z,8.27
2022-09-27T08:36:13.120Z,8.29
2022-09-27T08:38:43.269Z,8.00
2022-09-27T08:41:17.896Z,8.43
2022-09-27T08:43:53.520Z,8.38
2022-09-27T08:46:37.732Z,8.47
2022-09-27T08:49:11.202Z,8.33
2022-09-27T08:51:42.202Z,8.35
2022-09-27T08:54:19.211Z,8.45
2022-09-27T08:56:49.460Z,8.45
2022-09-27T08:59:22.116Z,8.55
2022-09-27T09:01:52.070Z,8.42
2022-09-27T09:23:53.290Z,8.33
2022-09-27T09:26:34.284Z,8.55
2022-09-27T09:29:17.407Z,8.64
2022-09-27T09:31:53.220Z,8.59
2022-09-27T09:34:26.926Z,8.69
2022-09-27T09:36:58.641Z,8.65
2022-09-27T09:39:32.325Z,8.73
2022-09-27T09:42:06.463Z,8.74
2022-09-27T09:44:44.044Z,8.73
2022-09-27T09:47:24.585Z,8.75
2022-09-27T09:49:59.612Z,8.91
2022-09-27T09:52:36.802Z,8.53
2022-09-27T09:55:15.323Z,8.90
2022-09-27T09:57:54.857Z,9.00
2022-09-27T10:00:23.788Z,9.10
2022-09-27T10:03:00.104Z,9.05
2022-09-27T10:05:30.183Z,8.92
2022-09-27T10:08:02.135Z,8.76
2022-09-27T10:10:32.255Z,8.29
2022-09-27T10:13:04.108Z,9.06
2022-09-27T10:15:33.512Z,9.07
2022-09-27T10:18:02.627Z,9.01
2022-09-27T10:20:35.188Z,9.20
2022-09-27T10:23:12.594Z,9.00
2022-09-27T10:25:52.467Z,9.32
2022-09-27T10:28:45.003Z,9.36
2022-09-27T10:31:15.553Z,9.18
2022-09-27T10:33:55.407Z,9.27
2022-09-27T10:36:26.537Z,9.41
2022-09-27T10:38:57.120Z,9.20
2022-09-27T10:41:34.566Z,9.26
2022-09-27T10:44:25.742Z,9.30
2022-09-27T10:46:56.108Z,9.18
2022-09-27T10:49:29.572Z,9.32
2022-09-27T10:52:00.653Z,9.34
2022-09-27T10:54:31.117Z,9.44
2022-09-27T10:57:04.847Z,9.51
2022-09-27T10:59:35.376Z,9.56
2022-09-27T11:02:06.001Z,9.57
2022-09-27T11:04:38.402Z,9.15
2022-09-27T11:07:25.449Z,9.50
2022-09-27T11:09:55.943Z,9.64
2022-09-27T11:12:25.846Z,9.80
2022-09-27T11:14:58.975Z,9.99
2022-09-27T11:17:34.382Z,9.88
2022-09-27T11:20:26.395Z,10.10
2022-09-27T11:23:18.799Z,10.04
2022-09-27T11:26:04.511Z,10.15
2022-09-27T11:28:45.415Z,10.12
2022-09-27T11:31:28.605Z,10.19
2022-09-27T11:34:16.453Z,10.34
2022-09-27T11:36:59.863Z,10.49
2022-09-27T11:39:39.436Z,10.65
2022-09-27T11:42:25.217Z,10.74
2022-09-27T11:45:34.405Z,10.62
2022-09-27T11:48:16.451Z,10.66
2022-09-27T11:51:05.719Z,10.45
2022-09-27T11:53:48.200Z,10.34
2022-09-27T11:56:31.177Z,10.42
2022-09-27T11:59:22.516Z,10.16
2022-09-27T12:01:58.673Z,10.29
2022-09-27T12:04:53.314Z,10.19
2022-09-27T12:07:28.671Z,10.45
2022-09-27T12:10:03.989Z,10.49
2022-09-27T12:12:36.125Z,10.56
2022-09-27T12:15:07.538Z,10.49
2022-09-27T12:17:41.378Z,10.39
2022-09-27T12:20:16.262Z,10.30
2022-09-27T12:23:00.712Z,10.04
2022-09-27T12:25:33.262Z,10.31
2022-09-27T12:28:08.904Z,10.31
2022-09-27T12:30:41.500Z,10.52
2022-09-27T12:33:20.067Z,10.62
2022-09-27T12:35:53.223Z,10.63
2022-09-27T12:38:24.608Z,10.50
2022-09-27T12:40:56.941Z,10.79
2022-09-27T12:43:28.779Z,10.33
2022-09-27T12:46:09.715Z,10.42
2022-09-27T12:48:49.255Z,10.53
2022-09-27T12:51:20.171Z,10.30
2022-09-27T12:54:05.408Z,10.32
2022-09-27T12:56:49.968Z,10.24
2022-09-27T12:59:30.608Z,10.26
2022-09-27T13:02:33.692Z,10.29
2022-09-27T13:05:39.284Z,10.37
2022-09-27T13:08:26.560Z,10.33
2022-09-27T13:11:06.479Z,10.32
2022-09-27T13:13:36.783Z,10.34
2022-09-27T13:16:06.411Z,9.92
2022-09-27T13:18:54.228Z,10.28
2022-09-27T13:21:59.941Z,10.30
2022-09-27T13:24:42.151Z,10.36
2022-09-27T13:27:41.428Z,10.54
2022-09-27T13:30:48.947Z,10.34
2022-09-27T13:33:45.940Z,10.24
2022-09-27T13:36:22.956Z,10.29
2022-09-27T13:39:06.303Z,10.37
2022-09-27T13:41:56.165Z,10.36
2022-09-27T13:44:30.479Z,10.46
2022-09-27T13:47:02.414Z,10.50
2022-09-27T13:49:37.945Z,10.46
2022-09-27T13:52:22.066Z,10.26
2022-09-27T13:54:56.154Z,10.34
2022-09-27T13:57:44.131Z,10.34
2022-09-27T14:00:16.243Z,10.32
2022-09-27T14:02:55.997Z,10.09
2022-09-27T14:05:31.298Z,9.99
2022-09-27T14:08:02.859Z,9.87
2022-09-27T14:10:33.597Z,9.81
2022-09-27T14:13:06.008Z,9.82
2022-09-27T14:15:35.649Z,9.67
2022-09-27T14:18:04.315Z,9.59
2022-09-27T14:20:38.995Z,9.82
2022-09-27T14:23:08.583Z,9.87
2022-09-27T14:25:47.638Z,9.81
2022-09-27T14:28:24.743Z,9.52
2022-09-27T14:31:07.776Z,9.86
2022-09-27T14:33:37.149Z,9.79
2022-09-27T14:36:25.962Z,9.46
2022-09-27T14:38:54.557Z,9.89
2022-09-27T14:41:26.138Z,9.42
2022-09-27T14:43:56.522Z,9.94
2022-09-27T14:46:30.163Z,9.75
2022-09-27T14:48:59.511Z,9.75
2022-09-27T14:51:31.048Z,9.81
2022-09-27T14:54:04.507Z,9.60
2022-09-27T14:56:37.958Z,9.30
2022-09-27T14:59:12.728Z,9.48
2022-09-27T15:01:50.480Z,9.29
2022-09-27T15:04:20.405Z,9.40
2022-09-27T15:06:49.907Z,9.52
2022-09-27T15:09:20.068Z,9.27
2022-09-27T15:11:54.792Z,9.37
2022-09-27T15:14:29.615Z,9.36
2022-09-27T15:17:01.971Z,9.37
2022-09-27T15:19:31.752Z,9.34
2022-09-27T15:22:25.263Z,9.36
2022-09-27T15:24:53.952Z,9.23
2022-09-27T15:27:27.987Z,9.16
2022-09-27T15:29:58.541Z,8.91
2022-09-27T15:32:29.039Z,9.14
2022-09-27T15:34:58.827Z,9.02
2022-09-27T15:37:30.339Z,8.98
2022-09-27T15:40:30.345Z,8.93
2022-09-27T15:43:02.782Z,8.86
2022-09-27T15:45:33.947Z,8.61
2022-09-27T15:48:14.791Z,8.77
2022-09-27T15:50:43.527Z,8.78
2022-09-27T15:53:12.477Z,8.81
2022-09-27T15:55:43.793Z,8.74
2022-09-27T15:58:18.139Z,8.82
2022-09-27T16:00:55.902Z,8.83
2022-09-27T16:03:25.539Z,8.82
2022-09-27T16:05:56.212Z,8.80
2022-09-27T16:08:24.576Z,8.82
2022-09-27T16:10:55.954Z,8.81
2022-09-27T16:13:31.628Z,8.65
2022-09-27T16:16:01.540Z,8.85
2022-09-27T16:18:31.052Z,8.76
2022-09-27T16:20:59.641Z,8.76
2022-09-27T16:23:27.983Z,8.77
2022-09-27T16:25:56.436Z,8.66
2022-09-27T16:28:26.199Z,8.74
2022-09-27T16:30:54.627Z,8.71
2022-09-27T16:33:22.947Z,8.69
2022-09-27T16:35:51.947Z,8.42
2022-09-27T16:38:20.335Z,8.74
2022-09-27T16:40:48.761Z,8.74
2022-09-27T16:43:17.260Z,8.64
2022-09-27T16:45:47.089Z,8.60
2022-09-27T16:48:15.688Z,8.03
2022-09-27T16:51:01.322Z,8.52
2022-09-27T16:53:30.165Z,8.46
2022-09-27T16:56:00.680Z,8.15
2022-09-27T16:58:30.840Z,8.44
2022-09-27T17:01:01.317Z,8.37
2022-09-27T17:03:30.009Z,8.21
2022-09-27T17:06:07.391Z,8.32
2022-09-27T17:08:36.266Z,8.32
2022-09-27T17:11:04.796Z,8.23
2022-09-27T17:13:33.396Z,8.15
2022-09-27T17:16:06.596Z,7.91
2022-09-27T17:18:35.383Z,7.93
2022-09-27T17:21:04.304Z,8.06
2022-09-27T17:23:32.840Z,8.02
2022-09-27T17:26:06.684Z,8.01
2022-09-27T17:28:36.508Z,8.01
2022-09-27T17:31:10.665Z,8.01
2022-09-27T17:33:44.852Z,7.96
2022-09-27T17:36:15.194Z,7.96
2022-09-27T17:38:45.849Z,7.93
2022-09-27T17:41:16.903Z,7.95
2022-09-27T17:43:50.436Z,7.93
2022-09-27T17:46:22.978Z,7.76
2022-09-27T17:49:09.037Z,7.67
2022-09-27T17:51:39.880Z,7.72
2022-09-27T17:54:10.203Z,7.83
2022-09-27T17:56:39.023Z,7.83
2022-09-27T17:59:08.578Z,7.80
2022-09-27T18:01:39.640Z,7.70
2022-09-27T18:04:10.647Z,7.57
2022-09-27T18:06:40.724Z,7.24
2022-09-27T18:09:10.239Z,7.78
2022-09-27T18:11:40.045Z,7.66
2022-09-27T18:14:10.715Z,7.72
2022-09-27T18:16:43.279Z,7.67
2022-09-27T18:19:14.043Z,7.74
2022-09-27T18:21:42.638Z,7.70
2022-09-27T18:24:12.132Z,7.76
2022-09-27T18:26:40.881Z,7.72
2022-09-27T18:29:11.764Z,7.70
2022-09-27T18:31:47.986Z,7.71
2022-09-27T18:34:17.781Z,7.65
2022-09-27T18:36:46.752Z,7.65
2022-09-27T18:39:19.176Z,7.59
2022-09-27T18:41:49.415Z,7.25
2022-09-27T18:44:19.584Z,7.58
2022-09-27T18:46:50.459Z,7.46
2022-09-27T18:49:22.337Z,7.61
2022-09-27T18:51:53.535Z,7.55
2022-09-27T18:54:23.468Z,7.54
2022-09-27T18:56:52.879Z,7.55
2022-09-27T18:59:24.375Z,7.39
2022-09-27T19:01:55.624Z,7.39
2022-09-27T19:04:25.964Z,7.25
2022-09-27T19:06:55.783Z,7.40
2022-09-27T19:09:26.388Z,7.01
2022-09-27T19:11:55.389Z,6.96
2022-09-27T19:14:25.385Z,7.00
2022-09-27T19:16:55.341Z,7.30
2022-09-27T19:19:24.368Z,7.31
2022-09-27T19:21:52.703Z,7.41
2022-09-27T19:24:22.130Z,6.97
2022-09-27T19:26:53.777Z,7.41
2022-09-27T19:29:22.352Z,7.38
2022-09-27T19:31:51.140Z,7.43
2022-09-27T19:34:21.455Z,7.24
2022-09-27T19:36:50.355Z,7.39
2022-09-27T19:39:18.919Z,7.44
2022-09-27T19:41:47.750Z,7.47
2022-09-27T19:44:16.053Z,7.46
2022-09-27T19:46:45.767Z,7.38
2022-09-27T19:49:15.008Z,6.82
2022-09-27T19:51:45.218Z,7.39
2022-09-27T19:54:13.892Z,7.36
2022-09-27T19:56:42.775Z,7.38
2022-09-27T19:59:13.467Z,7.33
2022-09-27T20:01:42.939Z,7.41
2022-09-27T20:04:13.349Z,7.43
2022-09-27T20:06:41.752Z,7.43
2022-09-27T20:09:11.594Z,7.44
2022-09-27T20:11:40.337Z,7.45
2022-09-27T20:14:08.664Z,7.45
2022-09-27T20:16:41.097Z,7.52
2022-09-27T20:19:10.540Z,6.99
2022-09-27T20:21:39.196Z,7.45
2022-09-27T20:24:07.765Z,7.41
2022-09-27T20:26:38.215Z,7.44
2022-09-27T20:29:08.147Z,7.40
2022-09-27T20:31:38.382Z,7.40
2022-09-27T20:34:08.340Z,7.42
2022-09-27T20:36:38.256Z,7.55
2022-09-27T20:39:08.833Z,7.46
2022-09-27T20:41:40.983Z,7.41
2022-09-27T20:44:11.426Z,7.22
2022-09-27T20:46:41.387Z,7.38
2022-09-27T20:49:11.403Z,7.38
2022-09-27T20:51:41.767Z,7.34
2022-09-27T20:54:11.929Z,7.33
2022-09-27T20:56:43.690Z,7.30
2022-09-27T20:59:16.800Z,7.25
2022-09-27T21:01:46.670Z,7.26
2022-09-27T21:04:17.357Z,7.20
2022-09-27T21:06:46.212Z,7.26
2022-09-27T21:09:19.106Z,7.11
2022-09-27T21:11:51.907Z,7.15
2022-09-27T21:14:20.752Z,6.99
2022-09-27T21:16:49.495Z,7.15
2022-09-27T21:19:18.675Z,7.20
2022-09-27T21:21:47.111Z,7.24
2022-09-27T21:24:15.992Z,7.21
2022-09-27T21:26:44.635Z,7.17
2022-09-27T21:29:15.512Z,7.12
2022-09-27T21:31:44.130Z,7.05
2022-09-27T21:34:12.830Z,7.02
2022-09-27T21:36:41.455Z,7.02
2022-09-27T21:39:11.037Z,7.04
2022-09-27T21:41:39.559Z,7.06
2022-09-27T21:44:09.097Z,6.95
2022-09-27T21:46:42.018Z,7.06
2022-09-27T21:49:11.315Z,7.06
2022-09-27T21:51:41.340Z,7.05
2022-09-27T21:54:11.518Z,6.80
2022-09-27T21:56:41.089Z,6.84
2022-09-27T21:59:12.267Z,6.95
2022-09-27T22:01:44.671Z,6.89
2022-09-27T22:04:13.381Z,6.78
2022-09-27T22:06:42.160Z,6.55
2022-09-27T22:09:14.590Z,6.77
2022-09-27T22:11:47.545Z,6.80
2022-09-27T22:14:17.057Z,6.74
2022-09-27T22:16:47.101Z,6.45
2022-09-27T22:19:16.889Z,6.73
2022-09-27T22:21:45.383Z,6.49
2022-09-27T22:24:16.087Z,6.51
2022-09-27T22:26:48.088Z,6.66
2022-09-27T22:29:17.174Z,6.55
2022-09-27T22:31:47.349Z,6.63
2022-09-27T22:34:19.003Z,6.64
2022-09-27T22:36:47.546Z,6.40
2022-09-27T22:39:16.163Z,6.54
2022-09-27T22:41:44.860Z,6.60
2022-09-27T22:44:13.576Z,6.25
2022-09-27T22:46:42.604Z,6.50
2022-09-27T22:49:12.823Z,6.53
2022-09-27T22:51:42.047Z,6.55
2022-09-27T22:54:10.679Z,6.51
2022-09-27T22:56:39.085Z,6.46
2022-09-27T22:59:07.715Z,6.56
2022-09-27T23:01:37.213Z,6.52
2022-09-27T23:04:05.702Z,6.45
2022-09-27T23:06:37.346Z,6.37
2022-09-27T23:09:06.790Z,4.84
2022-09-27T23:11:35.196Z,6.43
2022-09-27T23:14:07.189Z,6.41
2022-09-27T23:16:37.106Z,6.34
2022-09-27T23:19:08.349Z,6.05
2022-09-27T23:21:38.177Z,6.37
2022-09-27T23:24:06.806Z,6.36
2022-09-27T23:26:35.178Z,6.36
2022-09-27T23:29:04.482Z,6.34
2022-09-27T23:31:33.995Z,6.33
2022-09-27T23:34:05.430Z,6.35
2022-09-27T23:36:33.764Z,6.30
2022-09-27T23:39:03.587Z,6.34
2022-09-27T23:41:31.980Z,6.25
2022-09-27T23:44:00.660Z,6.33
2022-09-27T23:46:29.453Z,5.61
2022-09-27T23:48:59.125Z,6.13
2022-09-27T23:51:27.621Z,6.39
2022-09-27T23:53:57.904Z,6.43
2022-09-27T23:56:27.758Z,6.38
2022-09-27T23:58:56.264Z,6.42
